createdAt,value
2018-10-02T00:01:43.822Z,3.00
2018-10-02T00:04:48.482Z,3.70
2018-10-02T00:07:53.016Z,2.90
2018-10-02T00:11:02.941Z,2.83
2018-10-02T00:14:12.510Z,3.53
2018-10-02T00:17:17.056Z,2.90
2018-10-02T00:20:21.621Z,2.90
2018-10-02T00:23:26.087Z,3.00
2018-10-02T00:26:30.555Z,3.50
2018-10-02T00:29:35.052Z,2.67
2018-10-02T00:32:39.501Z,2.60
2018-10-02T00:35:43.989Z,3.37
2018-10-02T00:38:48.555Z,4.10
2018-10-02T00:41:53.047Z,2.70
2018-10-02T00:44:57.562Z,3.57
2018-10-02T00:48:02.010Z,3.83
2018-10-02T00:51:06.461Z,2.73
2018-10-02T00:54:10.902Z,3.13
2018-10-02T00:57:15.414Z,3.57
2018-10-02T01:00:19.978Z,3.80
2018-10-02T01:03:24.459Z,3.57
2018-10-02T01:06:28.937Z,3.60
2018-10-02T01:09:33.447Z,4.80
2018-10-02T01:12:38.019Z,4.10
2018-10-02T01:15:42.543Z,4.60
2018-10-02T01:18:47.060Z,5.50
2018-10-02T01:21:51.499Z,4.47
2018-10-02T01:24:55.961Z,5.63
2018-10-02T01:28:00.483Z,3.90
2018-10-02T01:31:04.959Z,4.43
2018-10-02T01:34:09.504Z,3.50
2018-10-02T01:37:14.103Z,3.60
2018-10-02T01:40:18.610Z,4.17
2018-10-02T01:43:23.047Z,3.87
2018-10-02T01:46:27.491Z,4.20
2018-10-02T01:49:32.045Z,3.57
2018-10-02T01:52:36.586Z,4.13
2018-10-02T01:55:41.135Z,3.73
2018-10-02T01:58:45.607Z,3.57
2018-10-02T02:01:50.068Z,3.93
2018-10-02T02:04:54.525Z,3.80
2018-10-02T02:07:59.013Z,3.97
2018-10-02T02:11:03.433Z,3.63
2018-10-02T02:14:08.175Z,3.60
2018-10-02T02:17:12.731Z,3.63
2018-10-02T02:20:17.327Z,4.10
2018-10-02T02:23:21.783Z,3.27
2018-10-02T02:26:26.206Z,3.80
2018-10-02T02:29:30.726Z,3.23
2018-10-02T02:32:35.372Z,3.90
2018-10-02T02:35:39.817Z,4.27
2018-10-02T02:38:44.380Z,4.03
2018-10-02T02:41:48.843Z,4.30
2018-10-02T02:44:53.289Z,3.47
2018-10-02T02:48:03.112Z,4.27
2018-10-02T02:51:12.866Z,3.70
2018-10-02T02:54:17.309Z,4.80
2018-10-02T02:57:21.746Z,4.40
2018-10-02T03:00:26.219Z,4.53
2018-10-02T03:03:30.703Z,4.50
2018-10-02T03:06:35.329Z,5.73
2018-10-02T03:09:39.858Z,6.93
2018-10-02T03:12:44.493Z,5.10
2018-10-02T03:15:48.991Z,5.00
2018-10-02T03:18:53.456Z,5.53
2018-10-02T03:21:58.162Z,4.80
2018-10-02T03:25:02.544Z,4.70
2018-10-02T03:28:07.039Z,5.33
2018-10-02T03:31:11.546Z,5.37
2018-10-02T03:34:16.244Z,4.87
2018-10-02T03:37:20.815Z,5.20
2018-10-02T03:40:25.374Z,5.63
2018-10-02T03:43:29.785Z,5.40
2018-10-02T03:46:34.344Z,5.67
2018-10-02T03:49:38.868Z,5.83
2018-10-02T03:52:43.417Z,6.30
2018-10-02T03:55:47.888Z,7.00
2018-10-02T03:58:52.376Z,6.03
2018-10-02T04:01:56.846Z,6.43
2018-10-02T04:05:01.367Z,6.03
2018-10-02T04:08:05.890Z,6.27
2018-10-02T04:11:10.545Z,6.07
2018-10-02T04:14:15.046Z,6.23
2018-10-02T04:17:19.689Z,5.80
2018-10-02T04:20:24.350Z,6.40
2018-10-02T04:23:28.873Z,6.43
2018-10-02T04:26:34.241Z,6.03
2018-10-02T04:29:38.844Z,5.87
2018-10-02T04:32:43.328Z,5.23
2018-10-02T04:35:47.848Z,6.63
2018-10-02T04:38:52.801Z,8.10
2018-10-02T04:41:57.346Z,7.77
2018-10-02T04:45:01.844Z,7.77
2018-10-02T04:48:06.404Z,7.70
2018-10-02T04:51:10.865Z,7.57
2018-10-02T04:54:15.449Z,7.10
2018-10-02T04:57:19.893Z,6.00
2018-10-02T05:00:24.457Z,6.50
2018-10-02T05:03:29.044Z,5.87
2018-10-02T05:06:33.569Z,7.07
2018-10-02T05:09:38.195Z,6.73
2018-10-02T05:12:42.654Z,6.17
2018-10-02T05:15:47.248Z,6.17
2018-10-02T05:18:51.794Z,6.60
2018-10-02T05:21:56.453Z,5.87
2018-10-02T05:25:01.017Z,6.50
2018-10-02T05:28:05.658Z,6.03
2018-10-02T05:31:10.221Z,6.87
2018-10-02T05:34:14.852Z,7.57
2018-10-02T05:37:19.465Z,8.23
2018-10-02T05:40:24.255Z,9.50
2018-10-02T05:43:28.772Z,11.17
2018-10-02T05:46:33.320Z,8.10
2018-10-02T05:49:37.882Z,7.07
2018-10-02T05:52:42.348Z,6.70
2018-10-02T05:55:46.838Z,9.00
2018-10-02T05:58:51.421Z,7.77
2018-10-02T06:01:56.503Z,7.87
2018-10-02T06:05:01.073Z,6.80
2018-10-02T06:08:07.227Z,6.83
2018-10-02T06:11:11.712Z,8.43
2018-10-02T06:14:16.195Z,9.60
2018-10-02T06:17:20.712Z,7.93
2018-10-02T06:20:25.289Z,8.00
2018-10-02T06:23:29.820Z,8.83
2018-10-02T06:26:34.402Z,7.33
2018-10-02T06:29:38.956Z,7.43
2018-10-02T06:32:43.595Z,7.00
2018-10-02T06:35:48.184Z,7.53
2018-10-02T06:38:52.673Z,7.83
2018-10-02T06:41:57.423Z,6.70
2018-10-02T06:45:02.024Z,6.73
2018-10-02T06:48:06.620Z,7.07
2018-10-02T06:51:11.315Z,7.20
2018-10-02T06:54:15.731Z,6.67
2018-10-02T06:57:20.252Z,5.00
2018-10-02T07:00:24.796Z,6.60
2018-10-02T07:03:29.311Z,5.77
2018-10-02T07:06:33.900Z,7.47
2018-10-02T07:09:38.468Z,7.47
2018-10-02T07:12:43.139Z,7.13
2018-10-02T07:15:47.690Z,4.70
2018-10-02T07:18:52.280Z,4.30
2018-10-02T07:21:56.785Z,3.30
2018-10-02T07:25:01.245Z,4.17
2018-10-02T07:28:05.938Z,3.53
2018-10-02T07:31:10.424Z,2.80
2018-10-02T07:34:14.923Z,3.10
2018-10-02T07:37:19.485Z,2.80
2018-10-02T07:40:24.037Z,3.33
2018-10-02T07:43:28.752Z,2.40
2018-10-02T07:46:33.304Z,3.00
2018-10-02T07:49:37.984Z,2.40
2018-10-02T07:52:42.750Z,2.60
2018-10-02T07:55:47.652Z,3.10
2018-10-02T07:58:52.185Z,2.47
2018-10-02T08:01:56.895Z,2.37
2018-10-02T08:05:01.562Z,2.50
2018-10-02T08:08:06.113Z,2.20
2018-10-02T08:11:10.938Z,2.60
2018-10-02T08:14:15.587Z,2.17
2018-10-02T08:17:20.289Z,2.20
2018-10-02T08:23:39.210Z,2.20
2018-10-02T08:26:44.268Z,2.37
2018-10-02T08:29:49.009Z,2.73
2018-10-02T08:32:53.586Z,1.80
2018-10-02T08:35:58.538Z,1.63
2018-10-02T08:39:03.242Z,2.00
2018-10-02T08:42:07.907Z,2.10
2018-10-02T08:45:12.645Z,2.23
2018-10-02T08:48:17.387Z,2.07
2018-10-02T08:51:22.197Z,2.00
2018-10-02T08:54:26.976Z,2.00
2018-10-02T08:57:31.736Z,2.30
2018-10-02T09:00:36.493Z,2.07
2018-10-02T09:03:41.276Z,2.23
2018-10-02T09:06:46.072Z,1.67
2018-10-02T09:09:51.007Z,2.20
2018-10-02T09:12:55.898Z,1.93
2018-10-02T09:16:00.737Z,1.90
2018-10-02T09:19:05.453Z,1.97
2018-10-02T09:22:10.035Z,1.80
2018-10-02T09:25:14.681Z,2.00
2018-10-02T09:28:19.365Z,1.87
2018-10-02T09:31:29.241Z,2.03
2018-10-02T09:34:39.095Z,2.03
2018-10-02T09:37:48.872Z,1.93
2018-10-02T09:40:58.715Z,1.93
2018-10-02T09:44:04.380Z,2.47
2018-10-02T09:47:08.937Z,2.10
2018-10-02T09:50:13.609Z,2.20
2018-10-02T09:53:18.199Z,1.87
2018-10-02T09:56:22.930Z,2.27
2018-10-02T09:59:27.627Z,2.30
2018-10-02T10:02:36.537Z,2.40
2018-10-02T10:05:41.255Z,1.93
2018-10-02T10:08:45.872Z,1.80
2018-10-02T10:11:50.551Z,1.53
2018-10-02T10:14:55.335Z,2.10
2018-10-02T10:17:59.972Z,1.80
2018-10-02T10:21:04.673Z,2.13
2018-10-02T10:24:09.231Z,1.73
2018-10-02T10:27:13.865Z,2.20
2018-10-02T10:30:18.510Z,1.90
2018-10-02T10:33:23.103Z,1.80
2018-10-02T10:36:27.756Z,1.93
2018-10-02T10:39:32.437Z,1.80
2018-10-02T10:42:37.061Z,1.90
2018-10-02T10:45:41.979Z,1.50
2018-10-02T10:48:46.581Z,1.83
2018-10-02T10:51:51.427Z,1.60
2018-10-02T10:55:31.346Z,1.40
2018-10-02T10:58:36.115Z,1.37
2018-10-02T11:01:40.624Z,2.07
2018-10-02T11:04:45.431Z,1.50
2018-10-02T11:07:50.008Z,2.37
2018-10-02T11:10:54.575Z,1.40
2018-10-02T11:13:59.180Z,1.93
2018-10-02T11:17:04.390Z,1.87
2018-10-02T11:20:09.452Z,2.40
2018-10-02T11:23:13.981Z,1.90
2018-10-02T11:26:18.890Z,1.37
2018-10-02T11:29:23.475Z,1.63
2018-10-02T11:32:28.089Z,1.50
2018-10-02T11:35:32.769Z,1.90
2018-10-02T11:38:37.316Z,1.50
2018-10-02T11:41:41.982Z,1.60
2018-10-02T11:44:46.540Z,1.43
2018-10-02T11:47:51.161Z,1.50
2018-10-02T11:50:55.991Z,2.37
2018-10-02T11:54:00.634Z,1.53
2018-10-02T11:57:05.282Z,1.70
2018-10-02T12:00:10.406Z,1.60
2018-10-02T12:03:15.017Z,1.80
2018-10-02T12:06:19.820Z,1.90
2018-10-02T12:09:24.546Z,1.63
2018-10-02T12:12:29.438Z,2.23
2018-10-02T12:15:34.308Z,2.10
2018-10-02T12:18:38.869Z,1.40
2018-10-02T12:21:43.577Z,1.50
2018-10-02T12:24:48.240Z,1.50
2018-10-02T12:27:52.860Z,1.63
2018-10-02T12:30:57.646Z,1.70
2018-10-02T12:34:02.177Z,1.87
2018-10-02T12:37:06.987Z,1.80
2018-10-02T12:40:11.595Z,1.30
2018-10-02T12:43:16.927Z,2.00
2018-10-02T12:46:21.530Z,1.47
2018-10-02T12:49:26.261Z,1.43
2018-10-02T12:52:31.188Z,1.67
2018-10-02T12:55:35.953Z,1.67
2018-10-02T12:58:41.062Z,1.53
2018-10-02T13:01:45.777Z,1.63
2018-10-02T13:04:50.314Z,1.90
2018-10-02T13:07:55.014Z,1.67
2018-10-02T13:10:59.658Z,2.60
2018-10-02T13:14:04.439Z,1.77
2018-10-02T13:17:09.138Z,1.40
2018-10-02T13:20:13.870Z,1.50
2018-10-02T13:23:18.549Z,1.17
2018-10-02T13:26:23.131Z,1.47
2018-10-02T13:29:27.750Z,1.97
2018-10-02T13:32:32.323Z,1.50
2018-10-02T13:35:36.977Z,1.40
2018-10-02T13:38:41.738Z,1.50
2018-10-02T13:41:46.621Z,1.10
2018-10-02T13:44:51.511Z,1.00
2018-10-02T13:47:56.025Z,0.80
2018-10-02T13:51:02.228Z,1.10
2018-10-02T13:54:06.810Z,1.00
2018-10-02T13:57:11.422Z,1.30
2018-10-02T14:00:16.149Z,1.70
2018-10-02T14:03:20.810Z,1.27
2018-10-02T14:06:25.593Z,0.97
2018-10-02T14:09:30.141Z,1.20
2018-10-02T14:12:34.766Z,1.00
2018-10-02T14:15:39.583Z,1.00
2018-10-02T14:18:44.458Z,0.80
2018-10-02T14:21:49.233Z,1.27
2018-10-02T14:24:53.860Z,1.10
2018-10-02T14:27:58.808Z,0.87
2018-10-02T14:31:03.469Z,1.33
2018-10-02T14:34:08.170Z,2.33
2018-10-02T14:37:12.979Z,1.50
2018-10-02T14:40:17.628Z,1.23
2018-10-02T14:43:22.947Z,1.37
2018-10-02T14:46:27.529Z,1.30
2018-10-02T14:49:32.264Z,1.30
2018-10-02T14:52:36.821Z,1.00
2018-10-02T14:55:41.752Z,1.60
2018-10-02T14:58:46.455Z,1.20
2018-10-02T15:01:51.177Z,1.10
2018-10-02T15:04:55.998Z,1.13
2018-10-02T15:08:01.093Z,1.43
2018-10-02T15:11:05.936Z,1.50
2018-10-02T15:14:11.129Z,1.40
2018-10-02T15:17:16.115Z,1.30
2018-10-02T15:20:20.816Z,1.30
2018-10-02T15:23:25.456Z,1.00
2018-10-02T15:26:30.100Z,1.23
2018-10-02T15:29:34.748Z,1.53
2018-10-02T15:32:39.386Z,2.90
2018-10-02T15:35:44.125Z,2.70
2018-10-02T15:38:48.684Z,1.30
2018-10-02T15:41:53.468Z,1.00
2018-10-02T15:44:58.069Z,1.27
2018-10-02T15:48:02.968Z,1.20
2018-10-02T15:51:07.965Z,1.60
2018-10-02T15:54:12.524Z,1.63
2018-10-02T15:57:17.295Z,2.23
2018-10-02T16:00:22.322Z,1.80
2018-10-02T16:03:27.150Z,1.50
2018-10-02T16:06:33.372Z,2.27
2018-10-02T16:09:38.151Z,2.20
2018-10-02T16:12:42.738Z,1.93
2018-10-02T16:15:47.482Z,4.30
2018-10-02T16:18:52.258Z,1.30
2018-10-02T16:21:56.984Z,1.53
2018-10-02T16:25:01.617Z,1.10
2018-10-02T16:28:06.339Z,2.03
2018-10-02T16:31:11.034Z,3.23
2018-10-02T16:34:15.774Z,1.67
2018-10-02T16:37:20.403Z,2.23
2018-10-02T16:40:25.250Z,1.67
2018-10-02T16:43:29.842Z,2.00
2018-10-02T16:46:34.782Z,2.47
2018-10-02T16:49:39.790Z,2.27
2018-10-02T16:52:44.593Z,2.60
2018-10-02T16:55:49.415Z,12.63
2018-10-02T16:58:54.048Z,6.07
2018-10-02T17:01:58.657Z,12.13
2018-10-02T17:05:03.283Z,2.03
2018-10-02T17:08:07.878Z,6.03
2018-10-02T17:11:12.561Z,19.00
2018-10-02T17:14:17.188Z,14.70
2018-10-02T17:17:21.814Z,2.40
2018-10-02T17:20:26.470Z,6.00
2018-10-02T17:23:31.105Z,30.93
2018-10-02T17:26:35.681Z,20.63
2018-10-02T17:29:40.508Z,7.10
2018-10-02T17:32:45.181Z,2.70
2018-10-02T17:35:49.878Z,3.50
2018-10-02T17:38:54.489Z,12.83
2018-10-02T17:41:59.221Z,6.37
2018-10-02T17:45:03.871Z,3.90
2018-10-02T17:48:08.503Z,3.10
2018-10-02T17:51:13.129Z,3.10
2018-10-02T17:54:17.788Z,2.83
2018-10-02T17:57:22.383Z,3.63
2018-10-02T18:00:27.046Z,3.00
2018-10-02T18:03:31.832Z,3.53
2018-10-02T18:06:36.470Z,3.47
2018-10-02T18:09:41.157Z,3.33
2018-10-02T18:12:45.723Z,3.93
2018-10-02T18:15:50.478Z,3.13
2018-10-02T18:18:55.275Z,3.50
2018-10-02T18:21:59.908Z,3.20
2018-10-02T18:25:04.703Z,3.33
2018-10-02T18:28:09.549Z,2.20
2018-10-02T18:31:14.207Z,2.67
2018-10-02T18:34:19.204Z,3.77
2018-10-02T18:37:23.908Z,2.67
2018-10-02T18:40:28.573Z,3.40
2018-10-02T18:43:33.711Z,2.77
2018-10-02T18:46:38.290Z,3.20
2018-10-02T18:49:44.321Z,4.47
2018-10-02T18:52:49.127Z,2.90
2018-10-02T18:55:54.121Z,3.60
2018-10-02T18:58:58.959Z,2.93
2018-10-02T19:02:03.887Z,2.70
2018-10-02T19:05:08.913Z,2.50
2018-10-02T19:08:13.814Z,2.70
2018-10-02T19:11:23.872Z,3.00
2018-10-02T19:14:28.655Z,2.67
2018-10-02T19:17:34.232Z,4.00
2018-10-02T19:20:45.081Z,2.93
2018-10-02T19:23:49.894Z,3.60
2018-10-02T19:26:54.697Z,5.87
2018-10-02T19:30:04.582Z,3.77
2018-10-02T19:33:09.305Z,4.07
2018-10-02T19:36:14.074Z,3.30
2018-10-02T19:39:25.020Z,3.43
2018-10-02T19:42:30.702Z,3.10
2018-10-02T19:45:40.475Z,3.43
2018-10-02T19:48:45.363Z,3.90
2018-10-02T19:51:59.143Z,3.30
2018-10-02T19:55:04.197Z,2.90
2018-10-02T19:58:09.100Z,3.20
2018-10-02T20:01:13.907Z,3.57
2018-10-02T20:04:18.750Z,3.53
2018-10-02T20:07:23.603Z,3.40
2018-10-02T20:10:28.490Z,3.30
2018-10-02T20:13:34.158Z,4.47
2018-10-02T20:16:39.185Z,3.40
2018-10-02T20:19:44.400Z,3.23
2018-10-02T20:22:50.692Z,6.20
2018-10-02T20:25:55.756Z,4.57
2018-10-02T20:29:01.134Z,3.67
2018-10-02T20:32:07.247Z,4.10
2018-10-02T20:35:12.050Z,16.87
2018-10-02T20:38:17.118Z,5.77
2018-10-02T20:41:21.810Z,3.93
2018-10-02T20:44:26.545Z,4.00
2018-10-02T20:47:31.480Z,3.90
2018-10-02T20:50:36.263Z,3.97
2018-10-02T20:53:40.961Z,3.80
2018-10-02T20:56:45.823Z,4.07
2018-10-02T20:59:50.654Z,3.77
2018-10-02T21:02:55.314Z,4.57
2018-10-02T21:05:59.960Z,4.63
2018-10-02T21:09:06.170Z,5.80
2018-10-02T21:12:11.127Z,7.63
2018-10-02T21:15:16.089Z,5.70
2018-10-02T21:18:21.146Z,5.83
2018-10-02T21:21:25.810Z,4.97
2018-10-02T21:24:30.601Z,5.20
2018-10-02T21:27:35.207Z,4.60
2018-10-02T21:30:39.843Z,4.50
2018-10-02T21:33:44.631Z,4.80
2018-10-02T21:36:49.404Z,5.10
2018-10-02T21:39:54.236Z,4.93
2018-10-02T21:42:58.851Z,4.73
2018-10-02T21:46:03.502Z,5.67
2018-10-02T21:49:08.262Z,5.03
2018-10-02T21:52:13.104Z,6.13
2018-10-02T21:55:17.952Z,5.80
2018-10-02T21:58:22.621Z,4.50
2018-10-02T22:01:32.796Z,6.37
2018-10-02T22:04:37.575Z,8.80
2018-10-02T22:07:42.300Z,5.97
2018-10-02T22:10:47.010Z,6.07
2018-10-02T22:13:51.621Z,6.90
2018-10-02T22:16:56.333Z,5.73
2018-10-02T22:20:01.057Z,6.20
2018-10-02T22:23:05.693Z,6.33
2018-10-02T22:26:10.341Z,6.33
2018-10-02T22:29:15.049Z,5.97
2018-10-02T22:32:19.826Z,6.90
2018-10-02T22:35:24.569Z,6.70
2018-10-02T22:38:29.317Z,6.93
2018-10-02T22:41:34.292Z,6.70
2018-10-02T22:44:39.079Z,7.10
2018-10-02T22:47:44.003Z,7.20
2018-10-02T22:50:48.703Z,7.27
2018-10-02T22:53:53.873Z,6.80
2018-10-02T22:56:58.553Z,6.53
2018-10-02T23:00:03.443Z,6.70
2018-10-02T23:03:08.149Z,7.60
2018-10-02T23:06:12.925Z,6.43
2018-10-02T23:09:17.757Z,6.50
2018-10-02T23:12:22.489Z,7.00
2018-10-02T23:15:27.207Z,6.33
2018-10-02T23:18:31.973Z,6.90
2018-10-02T23:21:36.635Z,6.23
2018-10-02T23:24:41.384Z,6.47
2018-10-02T23:27:46.061Z,6.07
2018-10-02T23:30:51.406Z,6.27
2018-10-02T23:33:56.102Z,5.97
2018-10-02T23:37:00.783Z,5.37
2018-10-02T23:40:05.605Z,5.90
2018-10-02T23:43:10.401Z,6.43
2018-10-02T23:46:15.129Z,5.57
2018-10-02T23:49:19.769Z,5.90
2018-10-02T23:52:24.442Z,5.33
2018-10-02T23:55:29.228Z,5.20
2018-10-02T23:58:33.915Z,6.40
